Time,TemperatureF,DewpointF,PressureIn,WindDirection,WindDirectionDegrees,WindSpeedMPH,WindSpeedGustMPH,Humidity,HourlyPrecipIn,Conditions,Clouds,dailyrainin,SoftwareType,DateUTC
2013-10-01 00:01:00,64.4,49.6,29.64,South,180,0.0,0.0,59,0.00,,,0.00,WUHU216HW,2013-10-01 05:01:00,
2013-10-01 00:06:00,64.5,49.3,29.65,SSW,203,0.0,4.2,58,0.00,,,0.00,WUHU216HW,2013-10-01 05:06:00,
2013-10-01 00:11:00,64.2,49.5,29.66,WNW,293,8.8,8.8,59,0.00,,,0.00,WUHU216HW,2013-10-01 05:11:00,
2013-10-01 00:16:00,64.0,50.2,29.67,WNW,293,4.0,8.8,61,0.00,,,0.00,WUHU216HW,2013-10-01 05:16:00,
2013-10-01 00:21:00,63.8,50.1,29.68,West,270,8.5,23.3,61,0.00,,,0.00,WUHU216HW,2013-10-01 05:21:00,
2013-10-01 00:26:00,63.1,49.8,29.69,WNW,293,21.1,23.3,62,0.00,,,0.00,WUHU216HW,2013-10-01 05:26:00,
2013-10-01 00:31:00,61.8,49.1,29.70,WNW,293,27.0,28.7,63,0.00,,,0.00,WUHU216HW,2013-10-01 05:31:00,
2013-10-01 00:36:00,60.9,49.1,29.70,WNW,293,23.5,28.7,65,0.00,,,0.00,WUHU216HW,2013-10-01 05:36:00,
2013-10-01 00:41:00,60.6,48.8,29.70,WNW,293,20.4,23.5,65,0.00,,,0.00,WUHU216HW,2013-10-01 05:41:00,
2013-10-01 00:46:00,60.0,48.7,29.70,WNW,293,13.7,23.5,66,0.00,,,0.00,WUHU216HW,2013-10-01 05:46:00,
2013-10-01 00:51:00,59.7,48.1,29.70,NW,315,18.7,20.6,66,0.00,,,0.00,WUHU216HW,2013-10-01 05:51:00,
2013-10-01 00:56:00,59.1,48.2,29.70,NNW,338,7.2,18.7,67,0.00,,,0.00,WUHU216HW,2013-10-01 05:56:00,
2013-10-01 01:01:00,58.8,47.8,29.70,WNW,293,14.2,18.7,67,0.00,,,0.00,WUHU216HW,2013-10-01 06:01:00,
2013-10-01 01:06:00,58.8,47.8,29.70,NW,315,11.2,17.4,67,0.00,,,0.00,WUHU216HW,2013-10-01 06:06:00,
2013-10-01 01:11:00,58.8,47.4,29.69,NNW,338,4.6,18.5,66,0.00,,,0.00,WUHU216HW,2013-10-01 06:11:00,
2013-10-01 01:16:00,59.0,47.4,29.68,NW,315,5.3,18.5,66,0.00,,,0.00,WUHU216HW,2013-10-01 06:16:00,
2013-10-01 01:21:00,58.8,47.8,29.68,NNE,23,3.5,15.7,67,0.00,,,0.00,WUHU216HW,2013-10-01 06:21:00,
2013-10-01 01:26:00,58.8,47.8,29.68,North,0,12.6,12.6,67,0.00,,,0.00,WUHU216HW,2013-10-01 06:26:00,
2013-10-01 01:31:00,58.8,48.2,29.70,NNW,338,6.1,12.6,68,0.00,,,0.00,WUHU216HW,2013-10-01 06:31:00,
2013-10-01 01:36:00,58.1,47.5,29.71,NNW,338,0.0,12.0,68,0.00,,,0.00,WUHU216HW,2013-10-01 06:36:00,
2013-10-01 01:41:00,57.7,47.2,29.72,NNW,338,0.0,6.1,68,0.00,,,0.00,WUHU216HW,2013-10-01 06:41:00,
2013-10-01 01:46:00,57.5,47.2,29.72,North,0,0.0,4.6,69,0.00,,,0.00,WUHU216HW,2013-10-01 06:46:00,
2013-10-01 01:51:00,57.3,47.0,29.72,NNW,338,11.2,11.2,69,0.00,,,0.00,WUHU216HW,2013-10-01 06:51:00,
2013-10-01 01:56:00,57.0,46.9,29.72,NNE,23,1.0,11.2,69,0.00,,,0.00,WUHU216HW,2013-10-01 06:56:00,
2013-10-01 02:01:00,56.8,47.1,29.72,NNW,338,4.0,11.2,70,0.00,,,0.00,WUHU216HW,2013-10-01 07:01:00,
2013-10-01 02:07:00,56.4,46.4,29.72,NW,315,0.0,5.9,69,0.00,,,0.00,WUHU216HW,2013-10-01 07:07:00,
2013-10-01 02:12:00,56.4,46.4,29.73,NW,315,0.0,6.4,69,0.00,,,0.00,WUHU216HW,2013-10-01 07:12:00,
2013-10-01 02:17:00,56.8,46.3,29.74,NW,315,0.0,8.3,68,0.00,,,0.00,WUHU216HW,2013-10-01 07:17:00,
2013-10-01 02:22:00,57.0,46.1,29.74,WNW,293,10.2,10.2,67,0.00,,,0.00,WUHU216HW,2013-10-01 07:22:00,
2013-10-01 02:27:00,57.5,45.6,29.75,NW,315,13.3,13.3,64,0.00,,,0.00,WUHU216HW,2013-10-01 07:27:00,
2013-10-01 02:32:00,58.2,45.3,29.75,WNW,293,25.4,25.4,62,0.00,,,0.00,WUHU216HW,2013-10-01 07:32:00,
2013-10-01 02:37:00,58.8,44.9,29.76,NNW,338,20.6,25.4,60,0.00,,,0.00,WUHU216HW,2013-10-01 07:37:00,
2013-10-01 02:42:00,58.4,45.4,29.76,WNW,293,23.5,23.5,62,0.00,,,0.00,WUHU216HW,2013-10-01 07:42:00,
2013-10-01 02:47:00,57.9,45.3,29.76,WNW,293,22.2,25.2,63,0.00,,,0.00,WUHU216HW,2013-10-01 07:47:00,
2013-10-01 02:52:00,57.5,45.0,29.77,WNW,293,13.9,25.2,63,0.00,,,0.00,WUHU216HW,2013-10-01 07:52:00,
2013-10-01 02:57:00,57.0,44.9,29.77,NNW,338,16.1,27.4,64,0.00,,,0.00,WUHU216HW,2013-10-01 07:57:00,
2013-10-01 03:02:00,56.4,44.8,29.77,NW,315,24.6,27.4,65,0.00,,,0.00,WUHU216HW,2013-10-01 08:02:00,
2013-10-01 03:07:00,56.1,44.4,29.76,NW,315,21.1,24.6,65,0.00,,,0.00,WUHU216HW,2013-10-01 08:07:00,
2013-10-01 03:12:00,55.9,44.7,29.76,WNW,293,25.7,25.7,66,0.00,,,0.00,WUHU216HW,2013-10-01 08:12:00,
2013-10-01 03:17:00,55.7,44.5,29.77,WNW,293,14.8,25.7,66,0.00,,,0.00,WUHU216HW,2013-10-01 08:17:00,
2013-10-01 03:22:00,55.2,44.0,29.77,NNW,338,12.6,20.4,66,0.00,,,0.00,WUHU216HW,2013-10-01 08:22:00,
2013-10-01 03:27:00,55.0,43.8,29.77,WNW,293,17.2,17.2,66,0.00,,,0.00,WUHU216HW,2013-10-01 08:27:00,
2013-10-01 03:32:00,54.6,43.9,29.78,WNW,293,12.0,17.2,67,0.00,,,0.00,WUHU216HW,2013-10-01 08:32:00,
2013-10-01 03:37:00,54.5,43.7,29.79,WNW,293,3.7,13.1,67,0.00,,,0.00,WUHU216HW,2013-10-01 08:37:00,
2013-10-01 03:42:00,54.3,43.5,29.79,WNW,293,7.0,12.0,67,0.00,,,0.00,WUHU216HW,2013-10-01 08:42:00,
2013-10-01 03:47:00,53.9,43.6,29.80,WNW,293,6.6,7.0,68,0.00,,,0.00,WUHU216HW,2013-10-01 08:47:00,
2013-10-01 03:52:00,53.7,43.4,29.80,WNW,293,6.6,15.2,68,0.00,,,0.00,WUHU216HW,2013-10-01 08:52:00,
2013-10-01 03:57:00,53.6,43.2,29.79,NW,315,16.8,16.8,68,0.00,,,0.00,WUHU216HW,2013-10-01 08:57:00,
2013-10-01 04:02:00,53.4,43.4,29.80,West,270,4.8,16.8,69,0.00,,,0.00,WUHU216HW,2013-10-01 09:02:00,
2013-10-01 04:07:00,53.4,43.0,29.80,WNW,293,15.2,16.8,68,0.00,,,0.00,WUHU216HW,2013-10-01 09:07:00,
2013-10-01 04:12:00,53.4,43.0,29.81,WNW,293,12.0,16.1,68,0.00,,,0.00,WUHU216HW,2013-10-01 09:12:00,
2013-10-01 04:17:00,53.4,43.0,29.82,West,270,7.2,12.8,68,0.00,,,0.00,WUHU216HW,2013-10-01 09:17:00,
2013-10-01 04:22:00,53.2,42.9,29.82,WNW,293,10.4,12.8,68,0.00,,,0.00,WUHU216HW,2013-10-01 09:22:00,
2013-10-01 04:27:00,53.2,42.5,29.82,WNW,293,8.0,10.4,67,0.00,,,0.00,WUHU216HW,2013-10-01 09:27:00,
2013-10-01 04:32:00,52.8,42.1,29.82,WNW,293,5.5,10.4,67,0.00,,,0.00,WUHU216HW,2013-10-01 09:32:00,
2013-10-01 04:37:00,52.7,42.4,29.83,NW,315,2.9,10.4,68,0.00,,,0.00,WUHU216HW,2013-10-01 09:37:00,
2013-10-01 04:42:00,52.3,42.0,29.83,WNW,293,5.9,5.9,68,0.00,,,0.00,WUHU216HW,2013-10-01 09:42:00,
2013-10-01 04:47:00,51.9,42.1,29.83,NW,315,5.0,5.9,69,0.00,,,0.00,WUHU216HW,2013-10-01 09:47:00,
2013-10-01 04:52:00,51.8,42.0,29.83,WNW,293,6.1,8.5,69,0.00,,,0.00,WUHU216HW,2013-10-01 09:52:00,
2013-10-01 04:57:00,51.8,42.0,29.84,NW,315,0.0,8.5,69,0.00,,,0.00,WUHU216HW,2013-10-01 09:57:00,
2013-10-01 05:02:00,51.6,41.8,29.84,WNW,293,0.0,8.3,69,0.00,,,0.00,WUHU216HW,2013-10-01 10:02:00,
2013-10-01 05:07:00,51.6,41.8,29.85,West,270,0.0,4.2,69,0.00,,,0.00,WUHU216HW,2013-10-01 10:07:00,
2013-10-01 05:12:00,51.4,41.6,29.85,West,270,3.5,3.5,69,0.00,,,0.00,WUHU216HW,2013-10-01 10:12:00,
2013-10-01 05:17:00,51.4,41.6,29.85,WNW,293,5.5,5.5,69,0.00,,,0.00,WUHU216HW,2013-10-01 10:17:00,
2013-10-01 05:22:00,51.4,41.6,29.85,West,270,2.9,5.5,69,0.00,,,0.00,WUHU216HW,2013-10-01 10:22:00,
2013-10-01 05:28:00,51.4,41.2,29.86,West,270,0.0,5.5,68,0.00,,,0.00,WUHU216HW,2013-10-01 10:28:00,
2013-10-01 05:33:00,51.0,40.8,29.86,WNW,293,0.0,2.9,68,0.00,,,0.00,WUHU216HW,2013-10-01 10:33:00,
2013-10-01 05:38:00,50.9,40.7,29.86,WNW,293,2.9,3.7,68,0.00,,,0.00,WUHU216HW,2013-10-01 10:38:00,
2013-10-01 05:43:00,51.0,40.8,29.86,West,270,4.0,4.0,68,0.00,,,0.00,WUHU216HW,2013-10-01 10:43:00,
2013-10-01 05:48:00,50.9,41.1,29.86,WNW,293,4.2,4.2,69,0.00,,,0.00,WUHU216HW,2013-10-01 10:48:00,
2013-10-01 05:53:00,50.7,40.9,29.87,WNW,293,0.0,4.2,69,0.00,,,0.00,WUHU216HW,2013-10-01 10:53:00,
2013-10-01 05:58:00,50.5,40.7,29.88,West,270,2.4,2.4,69,0.00,,,0.00,WUHU216HW,2013-10-01 10:58:00,
2013-10-01 06:03:00,50.7,40.9,29.88,WNW,293,4.0,4.0,69,0.00,,,0.00,WUHU216HW,2013-10-01 11:03:00,
2013-10-01 06:08:00,50.7,40.9,29.88,West,270,4.0,7.7,69,0.00,,,0.00,WUHU216HW,2013-10-01 11:08:00,
2013-10-01 06:13:00,50.7,40.9,29.88,West,270,0.0,7.7,69,0.00,,,0.00,WUHU216HW,2013-10-01 11:13:00,
2013-10-01 06:18:00,50.7,40.9,29.88,West,270,2.6,4.0,69,0.00,,,0.00,WUHU216HW,2013-10-01 11:18:00,
2013-10-01 06:23:00,50.5,40.7,29.89,WNW,293,0.0,4.6,69,0.00,,,0.00,WUHU216HW,2013-10-01 11:23:00,
2013-10-01 06:28:00,50.5,40.3,29.89,West,270,0.0,4.6,68,0.00,,,0.00,WUHU216HW,2013-10-01 11:28:00,
2013-10-01 06:33:00,50.5,40.3,29.90,WNW,293,8.5,17.4,68,0.00,,,0.00,WUHU216HW,2013-10-01 11:33:00,
2013-10-01 06:38:00,50.5,40.7,29.90,West,270,6.6,17.4,69,0.00,,,0.00,WUHU216HW,2013-10-01 11:38:00,
2013-10-01 06:43:00,50.3,40.5,29.90,WSW,248,2.9,8.3,69,0.00,,,0.00,WUHU216HW,2013-10-01 11:43:00,
2013-10-01 06:48:00,50.1,40.4,29.90,West,270,2.9,6.6,69,0.00,,,0.00,WUHU216HW,2013-10-01 11:48:00,
2013-10-01 06:53:00,50.1,40.0,29.91,West,270,5.3,5.3,68,0.00,,,0.00,WUHU216HW,2013-10-01 11:53:00,
2013-10-01 06:58:00,49.8,40.0,29.91,WSW,248,3.5,5.3,69,0.00,,,0.00,WUHU216HW,2013-10-01 11:58:00,
2013-10-01 07:03:00,49.8,40.0,29.91,WNW,293,2.0,5.3,69,0.00,,,0.00,WUHU216HW,2013-10-01 12:03:00,
2013-10-01 07:08:00,49.6,39.8,29.91,WNW,293,7.4,7.4,69,0.00,,,0.00,WUHU216HW,2013-10-01 12:08:00,
2013-10-01 07:13:00,49.2,39.5,29.91,WSW,248,0.0,7.4,69,0.00,,,0.00,WUHU216HW,2013-10-01 12:13:00,
2013-10-01 07:18:00,49.1,39.3,29.91,West,270,0.0,7.4,69,0.00,,,0.00,WUHU216HW,2013-10-01 12:18:00,
2013-10-01 07:23:00,48.7,39.3,29.91,WSW,248,0.0,5.5,70,0.00,,,0.00,WUHU216HW,2013-10-01 12:23:00,
2013-10-01 07:28:00,48.5,39.2,29.91,WSW,248,0.0,5.5,70,0.00,,,0.00,WUHU216HW,2013-10-01 12:28:00,
2013-10-01 07:33:00,48.0,38.6,29.91,WSW,248,0.0,0.0,70,0.00,,,0.00,WUHU216HW,2013-10-01 12:33:00,
2013-10-01 07:38:00,47.4,38.5,29.91,WSW,248,0.0,0.0,71,0.00,,,0.00,WUHU216HW,2013-10-01 12:38:00,
2013-10-01 07:43:00,47.3,38.7,29.91,WSW,248,0.0,0.0,72,0.00,,,0.00,WUHU216HW,2013-10-01 12:43:00,
2013-10-01 07:48:00,47.4,38.8,29.92,West,270,0.0,0.0,72,0.00,,,0.00,WUHU216HW,2013-10-01 12:48:00,
2013-10-01 07:54:00,47.8,39.3,29.93,WNW,293,0.0,0.0,72,0.00,,,0.00,WUHU216HW,2013-10-01 12:54:00,
2013-10-01 07:59:00,47.8,39.2,29.93,WNW,293,0.0,2.6,72,0.00,,,0.00,WUHU216HW,2013-10-01 12:59:00,
2013-10-01 08:04:00,48.0,39.3,29.93,West,270,8.0,8.0,72,0.00,,,0.00,WUHU216HW,2013-10-01 13:04:00,
2013-10-01 08:09:00,48.3,39.7,29.93,WSW,248,5.5,8.0,72,0.00,,,0.00,WUHU216HW,2013-10-01 13:09:00,
2013-10-01 08:14:00,48.9,39.9,29.93,WNW,293,1.6,8.0,71,0.00,,,0.00,WUHU216HW,2013-10-01 13:14:00,
2013-10-01 08:19:00,49.2,39.9,29.94,West,270,3.1,5.5,70,0.00,,,0.00,WUHU216HW,2013-10-01 13:19:00,
2013-10-01 08:24:00,49.4,40.1,29.94,WSW,248,5.5,5.5,70,0.00,,,0.00,WUHU216HW,2013-10-01 13:24:00,
2013-10-01 08:29:00,50.5,41.1,29.94,West,270,2.9,5.5,70,0.00,,,0.00,WUHU216HW,2013-10-01 13:29:00,
2013-10-01 08:34:00,53.7,42.6,29.94,SW,225,0.0,10.4,66,0.00,,,0.00,WUHU216HW,2013-10-01 13:34:00,
2013-10-01 08:39:00,55.2,42.3,29.95,West,270,2.4,10.4,62,0.00,,,0.00,WUHU216HW,2013-10-01 13:39:00,
2013-10-01 08:44:00,55.9,42.0,29.95,WNW,293,5.3,8.0,61,0.00,,,0.00,WUHU216HW,2013-10-01 13:44:00,
2013-10-01 08:49:00,55.2,41.5,29.95,West,270,4.8,11.2,60,0.00,,,0.00,WUHU216HW,2013-10-01 13:49:00,
2013-10-01 08:54:00,55.5,41.4,29.95,West,270,0.7,11.2,59,0.00,,,0.00,WUHU216HW,2013-10-01 13:54:00,
2013-10-01 08:59:00,56.1,41.9,29.96,SW,225,6.1,7.7,59,0.00,,,0.00,WUHU216HW,2013-10-01 13:59:00,
2013-10-01 09:04:00,58.4,43.2,29.96,WSW,248,3.1,9.1,57,0.00,,,0.00,WUHU216HW,2013-10-01 14:04:00,
2013-10-01 09:09:00,59.5,42.8,29.96,WNW,293,8.5,9.1,54,0.00,,,0.00,WUHU216HW,2013-10-01 14:09:00,
2013-10-01 09:14:00,60.9,42.8,29.96,West,270,0.0,11.8,52,0.00,,,0.00,WUHU216HW,2013-10-01 14:14:00,
2013-10-01 09:19:00,61.5,43.2,29.96,WSW,248,0.0,11.8,51,0.00,,,0.00,WUHU216HW,2013-10-01 14:19:00,
2013-10-01 09:24:00,61.8,43.0,29.96,West,270,14.2,14.2,50,0.00,,,0.00,WUHU216HW,2013-10-01 14:24:00,
2013-10-01 09:29:00,62.6,43.1,29.96,West,270,3.5,14.2,50,0.00,,,0.00,WUHU216HW,2013-10-01 14:29:00,
2013-10-01 09:34:00,62.9,43.4,29.97,West,270,0.0,13.3,49,0.00,,,0.00,WUHU216HW,2013-10-01 14:34:00,
2013-10-01 09:39:00,63.3,43.1,29.97,WNW,293,6.4,7.0,48,0.00,,,0.00,WUHU216HW,2013-10-01 14:39:00,
2013-10-01 09:44:00,63.5,43.3,29.97,West,270,12.0,12.0,48,0.00,,,0.00,WUHU216HW,2013-10-01 14:44:00,
2013-10-01 09:49:00,63.5,42.2,29.97,West,270,5.3,12.0,46,0.00,,,0.00,WUHU216HW,2013-10-01 14:49:00,
2013-10-01 09:54:00,63.5,42.7,29.98,West,270,1.3,12.2,47,0.00,,,0.00,WUHU216HW,2013-10-01 14:54:00,
2013-10-01 09:59:00,63.8,42.5,29.98,SW,225,10.4,12.2,46,0.00,,,0.00,WUHU216HW,2013-10-01 14:59:00,
2013-10-01 10:04:00,64.2,42.8,29.98,WSW,248,2.6,10.4,46,0.00,,,0.00,WUHU216HW,2013-10-01 15:04:00,
2013-10-01 10:09:00,64.7,42.7,29.98,West,270,8.8,10.4,45,0.00,,,0.00,WUHU216HW,2013-10-01 15:09:00,
2013-10-01 10:14:00,65.3,42.5,29.98,WNW,293,15.0,15.0,44,0.00,,,0.00,WUHU216HW,2013-10-01 15:14:00,
2013-10-01 10:19:00,65.1,41.3,29.98,WNW,293,16.3,16.3,42,0.00,,,0.00,WUHU216HW,2013-10-01 15:19:00,
2013-10-01 10:24:00,64.9,41.1,29.98,West,270,5.9,22.8,42,0.00,,,0.00,WUHU216HW,2013-10-01 15:24:00,
2013-10-01 10:29:00,65.1,42.5,29.99,West,270,7.2,22.8,44,0.00,,,0.00,WUHU216HW,2013-10-01 15:29:00,
2013-10-01 10:34:00,65.3,42.1,29.98,WNW,293,0.0,7.4,43,0.00,,,0.00,WUHU216HW,2013-10-01 15:34:00,
2013-10-01 10:39:00,65.6,42.4,29.99,WNW,293,8.0,8.0,43,0.00,,,0.00,WUHU216HW,2013-10-01 15:39:00,
2013-10-01 10:44:00,66.0,41.5,29.99,NNW,338,19.6,19.6,41,0.00,,,0.00,WUHU216HW,2013-10-01 15:44:00,
2013-10-01 10:49:00,66.0,41.0,29.98,West,270,7.2,19.6,40,0.00,,,0.00,WUHU216HW,2013-10-01 15:49:00,
2013-10-01 10:54:00,66.0,41.5,29.99,WNW,293,5.9,15.2,41,0.00,,,0.00,WUHU216HW,2013-10-01 15:54:00,
2013-10-01 10:59:00,66.3,41.9,29.99,WNW,293,14.2,14.2,41,0.00,,,0.00,WUHU216HW,2013-10-01 15:59:00,
2013-10-01 11:04:00,66.3,41.3,29.99,West,270,8.0,14.2,40,0.00,,,0.00,WUHU216HW,2013-10-01 16:04:00,
2013-10-01 11:09:00,66.3,41.3,29.99,WNW,293,17.2,17.2,40,0.00,,,0.00,WUHU216HW,2013-10-01 16:09:00,
2013-10-01 11:14:00,65.8,41.0,29.99,West,270,15.5,21.7,39,0.00,,,0.00,WUHU216HW,2013-10-01 16:14:00,
2013-10-01 11:19:00,65.6,40.6,29.99,WNW,293,14.8,21.7,40,0.00,,,0.00,WUHU216HW,2013-10-01 16:19:00,
2013-10-01 11:24:00,65.4,40.5,29.99,WNW,293,8.8,17.9,40,0.00,,,0.00,WUHU216HW,2013-10-01 16:24:00,
2013-10-01 11:29:00,65.8,41.2,29.99,WNW,293,15.7,17.9,40,0.00,,,0.00,WUHU216HW,2013-10-01 16:29:00,
2013-10-01 11:31:00,65.8,40.8,29.99,WNW,293,15.7,17.9,40,0.00,,,0.00,WUHU216HW,2013-10-01 16:31:00,
2013-10-01 11:36:00,65.4,39.8,29.99,West,270,10.9,16.3,39,0.00,,,0.00,WUHU216HW,2013-10-01 16:36:00,
2013-10-01 11:41:00,65.6,40.6,29.99,WNW,293,13.7,16.3,40,0.00,,,0.00,WUHU216HW,2013-10-01 16:41:00,
2013-10-01 11:46:00,66.0,39.5,29.99,WNW,293,11.8,15.5,37,0.00,,,0.00,WUHU216HW,2013-10-01 16:46:00,
2013-10-01 11:51:00,66.0,38.8,30.00,West,270,7.2,15.5,37,0.00,,,0.00,WUHU216HW,2013-10-01 16:51:00,
2013-10-01 11:56:00,66.0,39.5,29.99,West,270,5.9,12.2,38,0.00,,,0.00,WUHU216HW,2013-10-01 16:56:00,
2013-10-01 12:01:00,66.7,40.2,30.00,West,270,4.8,14.2,38,0.00,,,0.00,WUHU216HW,2013-10-01 17:01:00,
2013-10-01 12:06:00,67.6,40.2,30.00,WNW,293,12.2,15.2,37,0.00,,,0.00,WUHU216HW,2013-10-01 17:06:00,
2013-10-01 12:11:00,67.8,40.4,30.00,West,270,6.1,15.2,37,0.00,,,0.00,WUHU216HW,2013-10-01 17:11:00,
2013-10-01 12:16:00,67.6,40.2,29.99,West,270,6.4,12.2,37,0.00,,,0.00,WUHU216HW,2013-10-01 17:16:00,
2013-10-01 12:21:00,66.7,40.2,29.99,WNW,293,12.8,16.6,38,0.00,,,0.00,WUHU216HW,2013-10-01 17:21:00,
2013-10-01 12:26:00,66.3,40.6,29.99,WSW,248,13.9,16.6,39,0.00,,,0.00,WUHU216HW,2013-10-01 17:26:00,
2013-10-01 12:32:00,65.8,39.4,29.99,WNW,293,22.2,22.2,38,0.00,,,0.00,WUHU216HW,2013-10-01 17:32:00,
2013-10-01 12:37:00,64.9,39.3,30.00,WNW,293,14.2,22.2,39,0.00,,,0.00,WUHU216HW,2013-10-01 17:37:00,
2013-10-01 12:42:00,64.9,40.0,30.00,WNW,293,8.8,22.2,40,0.00,,,0.00,WUHU216HW,2013-10-01 17:42:00,
2013-10-01 12:47:00,65.1,39.4,30.00,West,270,19.0,19.0,39,0.00,,,0.00,WUHU216HW,2013-10-01 17:47:00,
2013-10-01 12:52:00,65.4,39.8,30.00,West,270,13.9,19.0,39,0.00,,,0.00,WUHU216HW,2013-10-01 17:52:00,
2013-10-01 12:57:00,66.3,39.8,29.99,West,270,13.3,19.0,38,0.00,,,0.00,WUHU216HW,2013-10-01 17:57:00,
2013-10-01 13:02:00,66.7,39.4,29.99,West,270,10.2,24.6,37,0.00,,,0.00,WUHU216HW,2013-10-01 18:02:00,
2013-10-01 13:07:00,67.1,40.5,29.99,West,270,16.6,24.6,38,0.00,,,0.00,WUHU216HW,2013-10-01 18:07:00,
2013-10-01 13:12:00,68.1,40.7,29.99,West,270,14.8,16.6,37,0.00,,,0.00,WUHU216HW,2013-10-01 18:12:00,
2013-10-01 13:17:00,68.7,41.9,29.99,West,270,8.8,14.8,38,0.00,,,0.00,WUHU216HW,2013-10-01 18:17:00,
2013-10-01 13:22:00,69.0,42.2,29.99,WNW,293,14.2,14.8,38,0.00,,,0.00,WUHU216HW,2013-10-01 18:22:00,
2013-10-01 13:27:00,69.4,41.1,29.99,WSW,248,10.9,14.2,36,0.00,,,0.00,WUHU216HW,2013-10-01 18:27:00,
2013-10-01 13:32:00,69.0,40.8,29.99,WNW,293,9.6,14.4,36,0.00,,,0.00,WUHU216HW,2013-10-01 18:32:00,
2013-10-01 13:37:00,69.2,40.9,29.99,WNW,293,20.4,20.4,36,0.00,,,0.00,WUHU216HW,2013-10-01 18:37:00,
2013-10-01 13:42:00,68.7,41.2,29.99,West,270,16.1,20.4,37,0.00,,,0.00,WUHU216HW,2013-10-01 18:42:00,
2013-10-01 13:47:00,68.7,40.4,29.99,WNW,293,17.4,20.4,36,0.00,,,0.00,WUHU216HW,2013-10-01 18:47:00,
2013-10-01 13:52:00,68.9,40.6,29.99,West,270,10.9,17.4,36,0.00,,,0.00,WUHU216HW,2013-10-01 18:52:00,
2013-10-01 13:57:00,68.7,41.2,30.00,WNW,293,20.4,20.4,37,0.00,,,0.00,WUHU216HW,2013-10-01 18:57:00,
2013-10-01 14:02:00,68.7,40.4,29.99,West,270,15.7,20.4,36,0.00,,,0.00,WUHU216HW,2013-10-01 19:02:00,
2013-10-01 14:07:00,68.5,41.0,29.99,WNW,293,10.4,20.4,37,0.00,,,0.00,WUHU216HW,2013-10-01 19:07:00,
2013-10-01 14:12:00,68.3,40.1,29.99,West,270,8.3,14.8,36,0.00,,,0.00,WUHU216HW,2013-10-01 19:12:00,
2013-10-01 14:17:00,68.1,39.2,29.99,West,270,7.4,14.8,35,0.00,,,0.00,WUHU216HW,2013-10-01 19:17:00,
2013-10-01 14:22:00,67.8,39.6,29.99,West,270,1.8,10.9,36,0.00,,,0.00,WUHU216HW,2013-10-01 19:22:00,
2013-10-01 14:27:00,67.8,39.6,29.99,WNW,293,7.7,15.7,36,0.00,,,0.00,WUHU216HW,2013-10-01 19:27:00,
2013-10-01 14:32:00,67.8,40.4,30.00,West,270,4.8,15.7,37,0.00,,,0.00,WUHU216HW,2013-10-01 19:32:00,
2013-10-01 14:37:00,67.8,40.4,30.00,WSW,248,14.8,14.8,37,0.00,,,0.00,WUHU216HW,2013-10-01 19:37:00,
2013-10-01 14:42:00,67.8,40.4,30.00,West,270,7.2,14.8,37,0.00,,,0.00,WUHU216HW,2013-10-01 19:42:00,
2013-10-01 14:47:00,67.6,40.2,30.00,West,270,11.5,11.5,37,0.00,,,0.00,WUHU216HW,2013-10-01 19:47:00,
2013-10-01 14:53:00,67.4,40.1,30.00,West,270,9.4,11.5,37,0.00,,,0.00,WUHU216HW,2013-10-01 19:53:00,
2013-10-01 14:58:00,67.6,41.0,30.00,WSW,248,12.0,19.0,38,0.00,,,0.00,WUHU216HW,2013-10-01 19:58:00,
2013-10-01 15:03:00,67.8,41.1,30.00,West,270,7.2,19.0,38,0.00,,,0.00,WUHU216HW,2013-10-01 20:03:00,
2013-10-01 15:08:00,67.8,40.4,29.99,WSW,248,7.7,12.6,37,0.00,,,0.00,WUHU216HW,2013-10-01 20:08:00,
2013-10-01 15:13:00,67.8,39.6,30.00,West,270,7.4,7.7,36,0.00,,,0.00,WUHU216HW,2013-10-01 20:13:00,
2013-10-01 15:18:00,67.8,39.6,30.00,SW,225,12.8,12.8,36,0.00,,,0.00,WUHU216HW,2013-10-01 20:18:00,
2013-10-01 15:23:00,67.8,39.6,30.00,WNW,293,10.9,12.8,36,0.00,,,0.00,WUHU216HW,2013-10-01 20:23:00,
2013-10-01 15:28:00,67.8,39.6,30.00,West,270,2.6,12.8,36,0.00,,,0.00,WUHU216HW,2013-10-01 20:28:00,
2013-10-01 15:33:00,67.8,39.6,30.00,West,270,4.0,13.9,36,0.00,,,0.00,WUHU216HW,2013-10-01 20:33:00,
2013-10-01 15:38:00,68.1,40.0,30.00,West,270,7.7,14.2,36,0.00,,,0.00,WUHU216HW,2013-10-01 20:38:00,
2013-10-01 15:43:00,68.1,40.0,30.00,SSW,203,9.1,14.2,36,0.00,,,0.00,WUHU216HW,2013-10-01 20:43:00,
2013-10-01 15:48:00,68.1,40.0,30.00,West,270,0.0,10.2,36,0.00,,,0.00,WUHU216HW,2013-10-01 20:48:00,
2013-10-01 15:53:00,68.1,40.7,30.00,WNW,293,10.2,10.2,37,0.00,,,0.00,WUHU216HW,2013-10-01 20:53:00,
2013-10-01 15:58:00,68.1,40.0,30.00,West,270,4.8,10.2,36,0.00,,,0.00,WUHU216HW,2013-10-01 20:58:00,
2013-10-01 16:03:00,67.8,39.8,30.00,WNW,293,5.0,11.8,36,0.00,,,0.00,WUHU216HW,2013-10-01 21:03:00,
2013-10-01 16:08:00,68.0,39.8,30.00,West,270,7.7,15.5,36,0.00,,,0.00,WUHU216HW,2013-10-01 21:08:00,
2013-10-01 16:13:00,68.0,40.5,30.00,West,270,8.0,15.5,37,0.00,,,0.00,WUHU216HW,2013-10-01 21:13:00,
2013-10-01 16:18:00,67.8,38.9,30.00,West,270,0.0,9.4,35,0.00,,,0.00,WUHU216HW,2013-10-01 21:18:00,
2013-10-01 16:23:00,67.8,39.6,30.00,West,270,8.8,9.4,36,0.00,,,0.00,WUHU216HW,2013-10-01 21:23:00,
2013-10-01 16:28:00,67.8,39.6,30.00,WNW,293,11.5,11.5,36,0.00,,,0.00,WUHU216HW,2013-10-01 21:28:00,
2013-10-01 16:33:00,67.8,38.9,30.00,West,270,11.8,15.7,35,0.00,,,0.00,WUHU216HW,2013-10-01 21:33:00,
2013-10-01 16:38:00,67.6,38.8,30.00,WNW,293,9.4,15.7,35,0.00,,,0.00,WUHU216HW,2013-10-01 21:38:00,
2013-10-01 16:43:00,67.6,38.8,30.00,West,270,0.0,11.8,35,0.00,,,0.00,WUHU216HW,2013-10-01 21:43:00,
2013-10-01 16:48:00,67.2,39.2,30.00,West,270,2.6,11.2,36,0.00,,,0.00,WUHU216HW,2013-10-01 21:48:00,
2013-10-01 16:53:00,67.2,39.2,30.00,WNW,293,9.1,9.1,36,0.00,,,0.00,WUHU216HW,2013-10-01 21:53:00,
2013-10-01 16:58:00,67.2,38.4,30.00,West,270,9.4,9.4,35,0.00,,,0.00,WUHU216HW,2013-10-01 21:58:00,
2013-10-01 17:03:00,67.1,39.0,30.00,WNW,293,1.3,9.4,36,0.00,,,0.00,WUHU216HW,2013-10-01 22:03:00,
2013-10-01 17:08:00,67.1,39.0,30.00,WSW,248,9.4,9.4,36,0.00,,,0.00,WUHU216HW,2013-10-01 22:08:00,
2013-10-01 17:13:00,67.1,38.3,30.00,WNW,293,7.4,9.4,35,0.00,,,0.00,WUHU216HW,2013-10-01 22:13:00,
2013-10-01 17:18:00,66.9,38.1,30.01,WNW,293,9.8,9.8,35,0.00,,,0.00,WUHU216HW,2013-10-01 22:18:00,
2013-10-01 17:23:00,66.7,38.7,30.00,West,270,5.3,13.3,36,0.00,,,0.00,WUHU216HW,2013-10-01 22:23:00,
2013-10-01 17:28:00,66.7,38.7,30.00,West,270,9.1,13.3,36,0.00,,,0.00,WUHU216HW,2013-10-01 22:28:00,
2013-10-01 17:33:00,66.3,38.4,30.01,WNW,293,9.8,12.0,36,0.00,,,0.00,WUHU216HW,2013-10-01 22:33:00,
2013-10-01 17:38:00,66.3,38.4,30.01,West,270,6.6,12.0,36,0.00,,,0.00,WUHU216HW,2013-10-01 22:38:00,
2013-10-01 17:43:00,66.2,37.5,30.01,NW,315,6.4,9.8,35,0.00,,,0.00,WUHU216HW,2013-10-01 22:43:00,
2013-10-01 17:48:00,66.0,38.8,30.00,WNW,293,9.8,12.2,37,0.00,,,0.00,WUHU216HW,2013-10-01 22:48:00,
2013-10-01 17:53:00,66.0,38.8,30.01,WNW,293,0.0,12.2,37,0.00,,,0.00,WUHU216HW,2013-10-01 22:53:00,
2013-10-01 17:58:00,65.8,38.6,30.01,WNW,293,3.5,10.4,37,0.00,,,0.00,WUHU216HW,2013-10-01 22:58:00,
2013-10-01 18:03:00,65.8,38.6,30.01,West,270,0.0,8.3,37,0.00,,,0.00,WUHU216HW,2013-10-01 23:03:00,
2013-10-01 18:08:00,65.4,38.3,30.01,West,270,0.0,8.3,37,0.00,,,0.00,WUHU216HW,2013-10-01 23:08:00,
2013-10-01 18:13:00,65.4,38.3,30.01,WNW,293,5.0,5.0,37,0.00,,,0.00,WUHU216HW,2013-10-01 23:13:00,
2013-10-01 18:18:00,65.1,38.7,30.01,WNW,293,0.0,5.0,38,0.00,,,0.00,WUHU216HW,2013-10-01 23:18:00,
2013-10-01 18:20:00,65.1,38.7,30.01,WNW,293,0.0,5.0,38,0.00,,,0.00,WUHU216HW,2013-10-01 23:20:00,
2013-10-01 18:25:00,64.9,39.3,30.01,WNW,293,0.0,0.0,39,0.00,,,0.00,WUHU216HW,2013-10-01 23:25:00,
2013-10-01 18:30:00,64.5,39.0,30.00,WNW,293,0.0,0.2,39,0.00,,,0.00,WUHU216HW,2013-10-01 23:30:00,
2013-10-01 18:35:00,64.2,38.6,30.01,WNW,293,0.0,0.2,39,0.00,,,0.00,WUHU216HW,2013-10-01 23:35:00,
2013-10-01 18:40:00,64.2,38.6,30.01,West,270,0.0,0.0,39,0.00,,,0.00,WUHU216HW,2013-10-01 23:40:00,
2013-10-01 18:45:00,64.0,38.5,30.00,West,270,0.0,0.0,39,0.00,,,0.00,WUHU216HW,2013-10-01 23:45:00,
2013-10-01 18:50:00,63.3,38.5,30.01,WNW,293,0.0,0.0,40,0.00,,,0.00,WUHU216HW,2013-10-01 23:50:00,
2013-10-01 18:55:00,62.7,38.6,30.01,WNW,293,0.0,1.3,41,0.00,,,0.00,WUHU216HW,2013-10-01 23:55:00,
2013-10-01 19:00:00,61.8,38.4,30.01,WNW,293,0.0,1.3,42,0.00,,,0.00,WUHU216HW,2013-10-02 00:00:00,
2013-10-01 19:05:00,60.4,37.7,30.01,WNW,293,0.0,0.0,43,0.00,,,0.00,WUHU216HW,2013-10-02 00:05:00,
2013-10-01 19:10:00,59.9,37.2,30.01,West,270,0.0,0.0,43,0.00,,,0.00,WUHU216HW,2013-10-02 00:10:00,
2013-10-01 19:15:00,59.5,36.9,30.02,WSW,248,0.0,0.0,43,0.00,,,0.00,WUHU216HW,2013-10-02 00:15:00,
2013-10-01 19:16:00,59.1,36.5,30.02,WSW,248,0.0,0.0,43,0.00,,,0.00,WUHU216HW,2013-10-02 00:16:00,
2013-10-01 19:21:00,58.6,36.6,30.02,WSW,248,0.0,0.0,44,0.00,,,0.00,WUHU216HW,2013-10-02 00:21:00,
2013-10-01 19:26:00,57.7,36.4,30.02,West,270,0.0,0.0,45,0.00,,,0.00,WUHU216HW,2013-10-02 00:26:00,
2013-10-01 19:31:00,56.6,36.0,30.03,WSW,248,0.0,0.0,46,0.00,,,0.00,WUHU216HW,2013-10-02 00:31:00,
2013-10-01 19:36:00,55.5,35.5,30.03,WSW,248,0.0,0.0,47,0.00,,,0.00,WUHU216HW,2013-10-02 00:36:00,
2013-10-01 19:41:00,54.5,35.1,30.03,SW,225,0.0,0.0,48,0.00,,,0.00,WUHU216HW,2013-10-02 00:41:00,
2013-10-01 19:46:00,53.7,35.5,30.03,WSW,248,0.0,0.0,50,0.00,,,0.00,WUHU216HW,2013-10-02 00:46:00,
2013-10-01 19:51:00,53.2,35.0,30.03,WSW,248,0.0,0.0,50,0.00,,,0.00,WUHU216HW,2013-10-02 00:51:00,
2013-10-01 19:56:00,53.2,35.5,30.03,WSW,248,0.0,0.0,51,0.00,,,0.00,WUHU216HW,2013-10-02 00:56:00,
2013-10-01 20:01:00,53.2,35.8,30.03,SW,225,0.0,0.0,52,0.00,,,0.00,WUHU216HW,2013-10-02 01:01:00,
2013-10-01 20:06:00,52.5,35.3,30.04,WSW,248,0.0,0.0,52,0.00,,,0.00,WUHU216HW,2013-10-02 01:06:00,
2013-10-01 20:11:00,51.9,35.3,30.04,SW,225,0.0,0.0,53,0.00,,,0.00,WUHU216HW,2013-10-02 01:11:00,
2013-10-01 20:16:00,51.4,35.2,30.04,SSW,203,0.0,0.0,54,0.00,,,0.00,WUHU216HW,2013-10-02 01:16:00,
2013-10-01 20:21:00,51.0,35.4,30.04,SW,225,0.0,0.0,55,0.00,,,0.00,WUHU216HW,2013-10-02 01:21:00,
2013-10-01 20:26:00,51.0,35.4,30.04,WSW,248,0.0,0.0,55,0.00,,,0.00,WUHU216HW,2013-10-02 01:26:00,
2013-10-01 20:31:00,50.7,35.5,30.04,WSW,248,0.0,0.0,56,0.00,,,0.00,WUHU216HW,2013-10-02 01:31:00,
2013-10-01 20:36:00,50.3,35.2,30.05,SW,225,0.0,0.0,56,0.00,,,0.00,WUHU216HW,2013-10-02 01:36:00,
2013-10-01 20:41:00,50.0,34.8,30.05,SW,225,0.0,0.0,56,0.00,,,0.00,WUHU216HW,2013-10-02 01:41:00,
2013-10-01 20:46:00,49.8,35.1,30.04,WSW,248,0.0,0.0,57,0.00,,,0.00,WUHU216HW,2013-10-02 01:46:00,
2013-10-01 20:51:00,49.8,35.6,30.04,WSW,248,0.0,0.0,58,0.00,,,0.00,WUHU216HW,2013-10-02 01:51:00,
2013-10-01 20:56:00,49.8,35.6,30.05,WSW,248,0.0,0.0,58,0.00,,,0.00,WUHU216HW,2013-10-02 01:56:00,
2013-10-01 21:01:00,49.4,35.2,30.05,WSW,248,0.0,0.0,58,0.00,,,0.00,WUHU216HW,2013-10-02 02:01:00,
2013-10-01 21:02:00,49.4,35.2,30.04,WSW,248,0.0,0.0,58,0.00,,,0.00,WUHU216HW,2013-10-02 02:02:00,
2013-10-01 21:07:00,49.8,36.0,30.05,WSW,248,0.0,0.0,59,0.00,,,0.00,WUHU216HW,2013-10-02 02:07:00,
2013-10-01 21:12:00,50.1,36.3,30.04,SW,225,0.0,0.0,59,0.00,,,0.00,WUHU216HW,2013-10-02 02:12:00,
2013-10-01 21:17:00,50.5,36.2,30.04,West,270,0.0,0.0,58,0.00,,,0.00,WUHU216HW,2013-10-02 02:17:00,
2013-10-01 21:22:00,51.4,36.6,30.04,WSW,248,0.0,0.0,57,0.00,,,0.00,WUHU216HW,2013-10-02 02:22:00,
2013-10-01 21:27:00,51.6,36.3,30.04,WSW,248,0.0,0.0,56,0.00,,,0.00,WUHU216HW,2013-10-02 02:27:00,
2013-10-01 21:32:00,51.4,36.1,30.04,SW,225,0.0,0.0,56,0.00,,,0.00,WUHU216HW,2013-10-02 02:32:00,
2013-10-01 21:37:00,50.9,35.6,30.04,WSW,248,0.0,0.0,56,0.00,,,0.00,WUHU216HW,2013-10-02 02:37:00,
2013-10-01 21:42:00,50.7,35.5,30.05,WSW,248,0.0,0.0,56,0.00,,,0.00,WUHU216HW,2013-10-02 02:42:00,
2013-10-01 21:47:00,50.5,35.3,30.05,WSW,248,0.0,0.0,56,0.00,,,0.00,WUHU216HW,2013-10-02 02:47:00,
2013-10-01 21:52:00,50.5,35.8,30.05,SW,225,0.0,0.0,57,0.00,,,0.00,WUHU216HW,2013-10-02 02:52:00,
2013-10-01 21:57:00,50.5,35.8,30.05,WSW,248,0.0,0.0,57,0.00,,,0.00,WUHU216HW,2013-10-02 02:57:00,
2013-10-01 22:02:00,50.5,35.8,30.05,SW,225,0.0,0.0,57,0.00,,,0.00,WUHU216HW,2013-10-02 03:02:00,
2013-10-01 22:07:00,50.1,35.4,30.05,SW,225,0.0,0.0,57,0.00,,,0.00,WUHU216HW,2013-10-02 03:07:00,
2013-10-01 22:12:00,50.0,35.3,30.06,WSW,248,0.0,0.0,57,0.00,,,0.00,WUHU216HW,2013-10-02 03:12:00,
2013-10-01 22:17:00,49.6,34.9,30.06,WSW,248,0.0,0.0,57,0.00,,,0.00,WUHU216HW,2013-10-02 03:17:00,
2013-10-01 22:22:00,48.9,34.7,30.06,SW,225,0.0,0.0,58,0.00,,,0.00,WUHU216HW,2013-10-02 03:22:00,
2013-10-01 22:27:00,48.9,34.7,30.06,SW,225,0.0,0.0,58,0.00,,,0.00,WUHU216HW,2013-10-02 03:27:00,
2013-10-01 22:32:00,48.7,34.6,30.06,SW,225,0.0,0.0,58,0.00,,,0.00,WUHU216HW,2013-10-02 03:32:00,
2013-10-01 22:37:00,48.7,34.6,30.06,SW,225,0.0,0.0,58,0.00,,,0.00,WUHU216HW,2013-10-02 03:37:00,
2013-10-01 22:42:00,48.7,35.0,30.06,SW,225,0.0,0.0,59,0.00,,,0.00,WUHU216HW,2013-10-02 03:42:00,
2013-10-01 22:47:00,48.7,34.6,30.06,SW,225,0.0,0.0,58,0.00,,,0.00,WUHU216HW,2013-10-02 03:47:00,
2013-10-01 22:52:00,48.7,35.0,30.07,SW,225,0.0,0.0,59,0.00,,,0.00,WUHU216HW,2013-10-02 03:52:00,
2013-10-01 22:57:00,48.7,35.0,30.07,SW,225,0.0,0.0,59,0.00,,,0.00,WUHU216HW,2013-10-02 03:57:00,
2013-10-01 23:01:00,48.9,35.2,30.07,SSW,203,0.0,0.0,59,0.00,,,0.00,WUHU216HW,2013-10-02 04:01:00,
2013-10-01 23:06:00,48.9,35.7,30.07,South,180,0.0,0.0,60,0.00,,,0.00,WUHU216HW,2013-10-02 04:06:00,
2013-10-01 23:11:00,48.7,35.5,30.07,South,180,0.0,0.0,60,0.00,,,0.00,WUHU216HW,2013-10-02 04:11:00,
2013-10-01 23:16:00,48.3,35.6,30.07,South,180,0.0,0.0,61,0.00,,,0.00,WUHU216HW,2013-10-02 04:16:00,
2013-10-01 23:21:00,48.0,35.2,30.07,South,180,0.0,0.0,61,0.00,,,0.00,WUHU216HW,2013-10-02 04:21:00,
2013-10-01 23:26:00,47.8,35.8,30.07,South,180,0.0,0.0,63,0.00,,,0.00,WUHU216HW,2013-10-02 04:26:00,
2013-10-01 23:31:00,48.0,36.3,30.07,South,180,0.0,0.0,64,0.00,,,0.00,WUHU216HW,2013-10-02 04:31:00,
2013-10-01 23:36:00,48.0,37.5,30.07,South,180,0.0,0.0,67,0.00,,,0.00,WUHU216HW,2013-10-02 04:36:00,
2013-10-01 23:41:00,48.2,38.4,30.07,South,180,0.0,0.0,69,0.00,,,0.00,WUHU216HW,2013-10-02 04:41:00,
2013-10-01 23:46:00,48.3,39.0,30.08,South,180,0.0,0.0,70,0.00,,,0.00,WUHU216HW,2013-10-02 04:46:00,
2013-10-01 23:51:00,48.3,39.0,30.07,South,180,0.0,0.0,70,0.00,,,0.00,WUHU216HW,2013-10-02 04:51:00,
2013-10-01 23:56:00,48.0,38.6,30.08,South,180,0.0,0.0,70,0.00,,,0.00,WUHU216HW,2013-10-02 04:56:00,